Time;durP1;ratioP1;P1;durP2;ratioP2;P2;SDS_P1;SDS_P2;PMS_P1;PMS_P2;Temp;Humidity;BMP_temperature;BMP_pressure;BME280_temperature;BME280_humidity;BME280_pressure;Samples;Min_cycle;Max_cycle;Signal;HPM_P1;HPM_P2
2023/08/18 00:02:21;;;;;;;17.23;15.40;;;16.80;99.90;;;;;;5095131;28;20410;-92
2023/08/18 00:04:46;;;;;;;15.90;14.27;;;16.80;99.90;;;;;;5093838;28;20914;-92
2023/08/18 00:07:12;;;;;;;23.47;16.10;;;16.80;99.90;;;;;;5095238;28;20414;-92
2023/08/18 00:09:37;;;;;;;14.93;13.30;;;16.80;99.90;;;;;;5095100;28;20202;-92
2023/08/18 00:12:05;;;;;;;23.37;16.40;;;16.80;99.90;;;;;;5094202;28;20241;-92
2023/08/18 00:14:31;;;;;;;18.83;16.20;;;16.80;99.90;;;;;;5094726;28;20188;-92
2023/08/18 00:16:56;;;;;;;22.53;17.03;;;16.70;99.90;;;;;;5094974;28;20491;-93
2023/08/18 00:19:22;;;;;;;23.03;17.03;;;16.70;99.90;;;;;;5093811;28;20882;-91
2023/08/18 00:21:48;;;;;;;18.80;16.50;;;16.70;99.90;;;;;;5094319;28;20227;-91
2023/08/18 00:24:13;;;;;;;22.03;16.60;;;16.70;99.90;;;;;;5094671;28;20223;-90
2023/08/18 00:26:39;;;;;;;20.87;17.40;;;16.60;99.90;;;;;;5093486;28;20188;-91
2023/08/18 00:29:04;;;;;;;18.77;16.50;;;16.60;99.90;;;;;;5094568;28;20241;-91
2023/08/18 00:31:30;;;;;;;20.00;15.60;;;16.60;99.90;;;;;;5094299;28;20670;-90
2023/08/18 00:33:56;;;;;;;20.27;17.23;;;16.60;99.90;;;;;;5093577;28;20178;-91
2023/08/18 00:36:22;;;;;;;20.93;16.17;;;16.60;99.90;;;;;;5089383;28;20417;-90
2023/08/18 00:38:48;;;;;;;25.30;16.80;;;16.50;99.90;;;;;;5113748;28;20222;-90
2023/08/18 00:41:13;;;;;;;23.10;18.43;;;16.50;99.90;;;;;;5113982;28;20648;-90
2023/08/18 00:43:39;;;;;;;21.07;16.97;;;16.50;99.90;;;;;;5096235;28;20654;-90
2023/08/18 00:46:06;;;;;;;21.40;18.53;;;16.50;99.90;;;;;;5114788;28;20274;-91
2023/08/18 00:48:32;;;;;;;20.10;18.00;;;16.60;99.90;;;;;;5113632;28;20256;-91
2023/08/18 00:51:00;;;;;;;23.27;19.10;;;16.50;99.90;;;;;;5114871;28;20405;-91
2023/08/18 00:53:26;;;;;;;21.43;18.90;;;16.50;99.90;;;;;;5114501;28;20406;-91
2023/08/18 00:55:52;;;;;;;28.80;20.17;;;16.50;99.90;;;;;;5114071;28;20384;-90
2023/08/18 00:58:18;;;;;;;24.20;20.73;;;16.40;99.90;;;;;;5114335;28;20532;-90
2023/08/18 01:00:44;;;;;;;26.90;20.07;;;16.40;99.90;;;;;;5114266;28;20186;-91
2023/08/18 01:03:10;;;;;;;24.30;18.73;;;16.40;99.90;;;;;;5113384;28;20405;-91
2023/08/18 01:05:36;;;;;;;26.60;18.13;;;16.30;99.90;;;;;;5114336;28;20416;-91
2023/08/18 01:08:02;;;;;;;23.07;18.03;;;16.30;99.90;;;;;;5114588;28;20421;-90
2023/08/18 01:10:32;;;;;;;18.17;16.27;;;16.30;99.90;;;;;;5113471;28;20546;-91
2023/08/18 01:13:09;;;;;;;20.80;18.50;;;16.20;99.90;;;;;;5114342;28;20593;-90
2023/08/18 01:15:42;;;;;;;27.20;17.47;;;16.20;99.90;;;;;;5114334;28;20425;-90
2023/08/18 01:18:10;;;;;;;20.20;16.50;;;16.20;99.90;;;;;;5113400;28;20502;-91
2023/08/18 01:20:37;;;;;;;29.30;17.83;;;16.20;99.90;;;;;;5113437;28;20409;-90
2023/08/18 01:23:04;;;;;;;20.30;16.80;;;16.20;99.90;;;;;;5113910;28;20517;-89
2023/08/18 01:25:31;;;;;;;19.60;15.63;;;16.20;99.90;;;;;;5114197;28;20432;-90
2023/08/18 01:27:58;;;;;;;25.17;17.63;;;16.20;99.90;;;;;;5114442;28;20446;-89
2023/08/18 01:30:41;;;;;;;23.47;18.40;;;16.10;99.90;;;;;;5113880;28;20473;-90
2023/08/18 01:33:43;;;;;;;22.07;17.73;;;16.10;99.90;;;;;;5114494;28;20406;-89
2023/08/18 01:36:12;;;;;;;24.80;20.40;;;16.10;99.90;;;;;;5114209;28;20877;-89
2023/08/18 01:38:38;;;;;;;22.53;19.80;;;16.10;99.90;;;;;;5113864;28;20457;-89
2023/08/18 01:41:09;;;;;;;31.43;20.27;;;16.10;99.90;;;;;;5114218;28;20408;-89
2023/08/18 01:43:34;;;;;;;22.60;20.20;;;16.00;99.90;;;;;;5113638;28;20450;-89
2023/08/18 01:46:03;;;;;;;23.00;18.77;;;16.00;99.90;;;;;;5114301;28;20405;-89
2023/08/18 01:48:28;;;;;;;23.37;18.30;;;16.00;99.90;;;;;;5114137;28;20577;-89
2023/08/18 01:50:54;;;;;;;26.10;19.40;;;16.00;99.90;;;;;;5114220;28;20448;-89
2023/08/18 01:53:20;;;;;;;27.33;20.77;;;16.00;99.90;;;;;;5096135;28;20243;-89
2023/08/18 01:55:45;;;;;;;24.27;20.57;;;15.90;99.90;;;;;;5113805;28;20406;-89
2023/08/18 01:58:11;;;;;;;21.33;17.73;;;15.90;99.90;;;;;;5114160;28;20215;-89
2023/08/18 02:00:37;;;;;;;22.83;18.27;;;15.90;99.90;;;;;;5113817;28;20537;-89
2023/08/18 02:03:02;;;;;;;21.17;18.97;;;15.90;99.90;;;;;;5114105;28;20172;-89
2023/08/18 02:05:28;;;;;;;29.83;21.77;;;15.90;99.90;;;;;;5113983;28;20207;-89
2023/08/18 02:07:54;;;;;;;23.03;20.03;;;16.00;99.90;;;;;;5113783;28;20533;-89
2023/08/18 02:10:20;;;;;;;23.27;18.93;;;15.90;99.90;;;;;;5113969;28;20416;-89
2023/08/18 02:12:46;;;;;;;27.83;21.70;;;15.90;99.90;;;;;;5113569;28;20417;-88
2023/08/18 02:15:11;;;;;;;26.60;19.80;;;15.80;99.90;;;;;;5113898;28;20237;-89
2023/08/18 02:17:37;;;;;;;27.13;19.77;;;15.80;99.90;;;;;;5117372;28;20211;-89
2023/08/18 02:20:03;;;;;;;27.37;20.53;;;15.80;99.90;;;;;;5117817;28;20183;-89
2023/08/18 02:22:29;;;;;;;25.20;20.90;;;15.80;99.90;;;;;;5117741;28;20239;-89
2023/08/18 02:24:55;;;;;;;30.47;19.40;;;15.80;99.90;;;;;;5117486;28;20885;-89
2023/08/18 02:27:20;;;;;;;19.87;16.50;;;15.80;99.90;;;;;;5117193;28;20704;-89
2023/08/18 02:29:46;;;;;;;31.13;19.07;;;15.70;99.90;;;;;;5117185;28;20236;-89
2023/08/18 02:32:11;;;;;;;23.40;17.87;;;15.60;99.90;;;;;;5117458;28;20241;-88
2023/08/18 02:34:37;;;;;;;24.10;17.83;;;15.60;99.90;;;;;;5117214;28;20207;-88
2023/08/18 02:37:03;;;;;;;26.43;20.20;;;15.60;99.90;;;;;;5117436;28;20290;-88
2023/08/18 02:39:28;;;;;;;27.93;19.90;;;15.60;99.90;;;;;;5117384;28;20221;-88
2023/08/18 02:41:55;;;;;;;28.83;20.23;;;15.60;99.90;;;;;;5116995;28;20180;-88
2023/08/18 02:44:25;;;;;;;27.87;22.00;;;15.60;99.90;;;;;;5117019;28;20233;-88
2023/08/18 02:46:51;;;;;;;24.13;19.33;;;15.60;99.90;;;;;;5117190;28;20538;-88
2023/08/18 02:49:16;;;;;;;26.33;19.63;;;15.60;99.90;;;;;;5117259;28;20465;-88
2023/08/18 02:51:42;;;;;;;28.83;21.13;;;15.60;99.90;;;;;;5116955;28;20204;-88
2023/08/18 02:54:07;;;;;;;27.10;19.33;;;15.60;99.90;;;;;;5116974;28;20556;-88
2023/08/18 02:56:33;;;;;;;24.20;17.77;;;15.60;99.90;;;;;;5116554;28;20188;-91
2023/08/18 02:58:58;;;;;;;25.93;18.47;;;15.60;99.90;;;;;;5116864;28;20219;-88
2023/08/18 03:01:24;;;;;;;26.13;20.57;;;15.60;99.90;;;;;;5117255;28;20218;-88
2023/08/18 03:03:49;;;;;;;35.23;20.00;;;15.70;99.90;;;;;;5116646;28;20180;-89
2023/08/18 03:06:15;;;;;;;32.73;22.00;;;15.80;99.90;;;;;;5116884;28;20175;-88
2023/08/18 03:08:41;;;;;;;35.93;24.27;;;15.80;99.90;;;;;;5116393;28;20310;-88
2023/08/18 03:11:07;;;;;;;40.37;25.03;;;15.80;99.90;;;;;;5116540;28;20182;-88
2023/08/18 03:13:33;;;;;;;28.10;21.80;;;15.80;99.90;;;;;;5116429;28;20179;-88
2023/08/18 03:15:59;;;;;;;28.83;20.83;;;15.70;99.90;;;;;;5116557;28;20409;-88
2023/08/18 03:18:25;;;;;;;36.30;22.77;;;15.70;99.90;;;;;;5098413;28;20468;-88
2023/08/18 03:21:00;;;;;;;36.90;22.37;;;15.80;99.90;;;;;;5116443;28;20190;-88
2023/08/18 03:23:26;;;;;;;38.17;22.97;;;15.80;99.90;;;;;;5116859;28;20464;-88
2023/08/18 03:25:57;;;;;;;38.43;24.07;;;15.90;99.90;;;;;;5115852;28;20893;-88
2023/08/18 03:28:23;;;;;;;38.33;22.43;;;15.90;99.90;;;;;;5116376;28;20484;-88
2023/08/18 03:30:48;;;;;;;31.87;22.93;;;16.00;99.90;;;;;;5116266;28;20495;-88
2023/08/18 03:33:14;;;;;;;34.43;22.47;;;16.10;99.90;;;;;;5116624;28;20565;-88
2023/08/18 03:35:39;;;;;;;44.67;26.00;;;16.00;99.90;;;;;;5116263;28;20648;-89
2023/08/18 03:38:05;;;;;;;43.03;23.50;;;16.10;99.90;;;;;;5116107;28;20234;-88
2023/08/18 03:40:31;;;;;;;60.43;29.50;;;16.10;99.90;;;;;;5116118;28;20180;-88
2023/08/18 03:42:57;;;;;;;49.13;27.27;;;16.20;99.90;;;;;;5115770;28;20175;-88
2023/08/18 03:45:23;;;;;;;61.97;28.60;;;16.30;99.90;;;;;;5116002;28;20835;-88
2023/08/18 03:47:50;;;;;;;51.07;24.57;;;16.20;99.90;;;;;;5115914;28;20222;-88
2023/08/18 03:50:15;;;;;;;55.93;25.90;;;16.20;99.90;;;;;;5115784;28;20413;-88
2023/08/18 03:52:41;;;;;;;110.40;30.50;;;16.20;99.90;;;;;;5115706;28;20405;-88
2023/08/18 03:55:06;;;;;;;88.63;27.77;;;16.20;99.90;;;;;;5115965;28;20205;-88
2023/08/18 03:57:32;;;;;;;133.60;33.10;;;16.10;99.90;;;;;;5115599;28;20272;-87
2023/08/18 03:59:57;;;;;;;69.70;27.40;;;16.30;99.90;;;;;;5115468;28;20241;-88
2023/08/18 04:02:23;;;;;;;49.83;27.00;;;16.20;99.90;;;;;;5115819;28;20203;-88
2023/08/18 04:04:49;;;;;;;79.07;29.17;;;16.20;99.90;;;;;;5115437;28;20176;-88
2023/08/18 04:07:15;;;;;;;72.20;26.67;;;16.20;99.90;;;;;;5115730;28;20266;-88
2023/08/18 04:09:40;;;;;;;79.23;28.87;;;16.30;99.90;;;;;;5115418;28;20171;-88
2023/08/18 04:12:06;;;;;;;50.30;25.87;;;16.30;99.90;;;;;;5097491;28;20398;-88
2023/08/18 04:14:32;;;;;;;64.80;27.60;;;16.30;99.90;;;;;;5114952;28;20686;-88
2023/08/18 04:16:58;;;;;;;64.50;28.77;;;16.30;99.90;;;;;;5115234;28;20483;-88
2023/08/18 04:19:24;;;;;;;55.93;27.40;;;16.40;99.90;;;;;;5115248;28;20267;-88
2023/08/18 04:21:49;;;;;;;63.40;30.57;;;16.50;99.90;;;;;;5115042;28;20900;-88
2023/08/18 04:24:15;;;;;;;56.30;30.50;;;16.50;99.90;;;;;;5115396;28;20179;-88
2023/08/18 04:26:41;;;;;;;54.37;31.37;;;16.50;99.90;;;;;;5115200;28;20266;-89
2023/08/18 04:29:06;;;;;;;62.57;30.37;;;16.50;99.90;;;;;;5115447;28;20624;-88
2023/08/18 04:31:32;;;;;;;63.97;32.03;;;16.60;99.90;;;;;;5115292;28;20175;-88
2023/08/18 04:33:58;;;;;;;75.57;33.17;;;16.60;99.90;;;;;;5114827;28;20175;-88
2023/08/18 04:36:24;;;;;;;51.30;30.30;;;16.60;99.90;;;;;;5115128;28;20171;-88
2023/08/18 04:38:49;;;;;;;216.23;38.30;;;16.60;99.90;;;;;;5113625;28;20442;-88
2023/08/18 04:41:15;;;;;;;199.40;37.07;;;16.60;99.90;;;;;;5115216;28;20263;-88
2023/08/18 04:43:40;;;;;;;382.40;47.87;;;16.60;99.90;;;;;;5114376;28;20179;-89
2023/08/18 04:46:06;;;;;;;68.73;31.03;;;16.80;99.90;;;;;;5115004;28;20234;-88
2023/08/18 04:48:32;;;;;;;83.07;33.93;;;16.70;99.90;;;;;;5114898;28;20187;-88
2023/08/18 04:50:58;;;;;;;159.80;36.30;;;16.80;99.90;;;;;;5114613;28;20258;-88
2023/08/18 04:53:24;;;;;;;101.53;33.50;;;16.70;99.90;;;;;;5114743;28;20412;-88
2023/08/18 04:55:50;;;;;;;76.30;31.53;;;16.70;99.90;;;;;;5079386;28;20460;-88
2023/08/18 04:58:15;;;;;;;83.20;30.70;;;16.70;99.90;;;;;;5114785;28;20226;-88
2023/08/18 05:00:41;;;;;;;142.93;32.77;;;16.80;99.90;;;;;;5114644;28;20218;-89
2023/08/18 05:03:07;;;;;;;137.63;35.67;;;16.80;99.90;;;;;;5115320;28;20261;-88
2023/08/18 05:05:58;;;;;;;169.30;36.57;;;16.90;99.90;;;;;;5114797;28;20437;-88
2023/08/18 05:08:24;;;;;;;198.53;36.57;;;16.80;99.90;;;;;;5099924;28;20516;-88
2023/08/18 05:10:50;;;;;;;135.40;34.80;;;16.80;99.90;;;;;;5114187;28;20901;-88
2023/08/18 05:13:16;;;;;;;176.97;37.60;;;16.90;99.90;;;;;;5114256;28;20470;-88
2023/08/18 05:15:41;;;;;;;75.37;30.57;;;16.90;99.90;;;;;;5114400;28;20184;-90
2023/08/18 05:18:07;;;;;;;216.63;37.07;;;16.80;99.90;;;;;;5096334;28;20293;-87
2023/08/18 05:20:32;;;;;;;78.53;33.77;;;16.90;99.90;;;;;;5096314;28;20191;-88
2023/08/18 05:22:58;;;;;;;75.00;33.03;;;16.90;99.90;;;;;;5095724;28;20328;-88
2023/08/18 05:25:24;;;;;;;85.70;33.67;;;16.90;99.90;;;;;;5114416;28;20183;-88
2023/08/18 05:27:49;;;;;;;118.87;32.20;;;17.00;99.90;;;;;;5114284;28;20186;-88
2023/08/18 05:30:15;;;;;;;188.37;38.10;;;17.00;99.90;;;;;;5114303;28;20266;-88
2023/08/18 05:32:40;;;;;;;145.97;36.10;;;17.00;99.90;;;;;;5114145;28;20232;-88
2023/08/18 05:35:06;;;;;;;169.30;36.80;;;17.20;99.90;;;;;;5114116;28;20176;-88
2023/08/18 05:37:32;;;;;;;65.17;31.50;;;17.20;99.90;;;;;;5114071;28;20252;-88
2023/08/18 05:39:57;;;;;;;76.27;32.70;;;17.10;99.90;;;;;;5113935;28;20188;-88
2023/08/18 05:42:23;;;;;;;135.80;34.53;;;17.10;99.90;;;;;;5114129;28;20176;-88
2023/08/18 05:44:48;;;;;;;73.47;33.93;;;17.30;99.90;;;;;;5114007;28;20179;-88
2023/08/18 05:47:14;;;;;;;111.87;35.00;;;17.40;99.90;;;;;;5114451;28;20210;-87
2023/08/18 05:49:39;;;;;;;77.17;34.00;;;17.40;99.90;;;;;;5115146;28;20176;-87
2023/08/18 05:52:05;;;;;;;89.03;34.20;;;17.40;99.90;;;;;;5118430;28;20557;-87
2023/08/18 05:54:31;;;;;;;82.43;32.17;;;17.40;99.90;;;;;;5118555;28;20207;-87
2023/08/18 05:56:57;;;;;;;67.67;32.70;;;17.40;99.90;;;;;;5117935;28;20225;-87
2023/08/18 05:59:22;;;;;;;83.53;29.80;;;17.50;99.90;;;;;;5118292;28;20187;-87
2023/08/18 06:01:50;;;;;;;95.40;30.00;;;17.60;99.90;;;;;;5118019;28;20180;-88
2023/08/18 06:04:15;;;;;;;59.73;30.30;;;17.60;99.90;;;;;;5118523;28;20179;-88
2023/08/18 06:06:41;;;;;;;77.23;30.70;;;17.60;99.90;;;;;;5099971;28;20409;-87
2023/08/18 06:09:06;;;;;;;52.63;29.53;;;17.60;99.90;;;;;;5117910;28;20198;-87
2023/08/18 06:11:32;;;;;;;129.27;31.40;;;17.50;99.90;;;;;;5118732;28;20510;-87
2023/08/18 06:13:59;;;;;;;88.17;30.60;;;17.50;99.90;;;;;;5117850;28;20364;-87
2023/08/18 06:16:25;;;;;;;67.40;29.70;;;17.70;99.90;;;;;;5118875;28;20176;-88
2023/08/18 06:18:50;;;;;;;59.30;30.37;;;17.70;99.90;;;;;;5118463;28;20865;-88
2023/08/18 06:21:16;;;;;;;56.53;30.00;;;17.80;99.90;;;;;;5118121;28;20191;-87
2023/08/18 06:23:41;;;;;;;53.60;30.27;;;17.90;99.90;;;;;;5117881;28;20168;-88
2023/08/18 06:26:07;;;;;;;44.80;27.10;;;17.80;99.90;;;;;;5117511;28;20175;-88
2023/08/18 06:28:33;;;;;;;47.33;29.50;;;17.70;99.90;;;;;;5082946;28;20650;-88
2023/08/18 06:31:08;;;;;;;44.20;28.37;;;18.00;99.90;;;;;;5117603;28;20184;-88
2023/08/18 06:33:36;;;;;;;36.23;27.00;;;18.00;99.90;;;;;;5117614;28;20175;-88
2023/08/18 06:36:03;;;;;;;36.70;25.30;;;18.20;99.90;;;;;;5117743;28;20897;-88
2023/08/18 06:38:29;;;;;;;31.43;23.90;;;18.30;99.90;;;;;;5117421;28;20470;-88
2023/08/18 06:40:54;;;;;;;35.00;26.27;;;18.40;99.90;;;;;;5117219;28;20405;-89
2023/08/18 06:43:20;;;;;;;31.47;23.30;;;18.40;99.90;;;;;;5117593;28;20288;-95
2023/08/18 06:45:46;;;;;;;27.57;22.70;;;18.40;99.90;;;;;;5120181;28;20175;-96
2023/08/18 06:48:19;;;;;;;34.83;25.00;;;18.50;99.90;;;;;;5107288;28;20266;-95
2023/08/18 06:50:45;;;;;;;36.90;26.57;;;18.50;99.90;;;;;;5123011;28;20163;-94
2023/08/18 06:53:10;;;;;;;29.30;23.33;;;18.60;99.90;;;;;;5120545;28;20406;-95
2023/08/18 06:55:38;;;;;;;31.10;24.30;;;18.60;99.90;;;;;;5121241;28;20524;-95
2023/08/18 06:58:07;;;;;;;40.13;30.33;;;18.80;99.90;;;;;;5091933;28;20199;-94
2023/08/18 07:00:33;;;;;;;46.73;31.90;;;18.90;99.90;;;;;;5108768;28;20883;-94
2023/08/18 07:03:14;;;;;;;42.40;30.33;;;19.10;99.90;;;;;;5110263;28;20424;-96
2023/08/18 07:05:40;;;;;;;47.73;33.50;;;19.20;99.90;;;;;;5123991;28;20393;-95
2023/08/18 07:08:08;;;;;;;43.07;31.43;;;19.10;99.90;;;;;;5131592;28;20417;-95
2023/08/18 07:10:33;;;;;;;42.37;32.23;;;19.10;99.90;;;;;;5144272;27;20417;-95
2023/08/18 07:12:59;;;;;;;49.43;34.40;;;19.20;99.90;;;;;;5114020;28;20450;-95
2023/08/18 07:15:32;;;;;;;48.97;33.40;;;19.20;99.90;;;;;;5116889;28;20182;-95
2023/08/18 07:17:58;;;;;;;46.13;33.37;;;19.30;99.90;;;;;;5373903;22;20667;-95
2023/08/18 07:20:24;;;;;;;51.27;36.17;;;19.50;99.90;;;;;;5102780;28;20400;-95
2023/08/18 07:22:49;;;;;;;42.97;31.77;;;19.70;99.90;;;;;;5101316;28;20187;-93
2023/08/18 07:25:15;;;;;;;46.93;33.97;;;19.70;99.90;;;;;;5101693;28;20184;-94
2023/08/18 07:27:46;;;;;;;41.43;32.63;;;19.80;99.90;;;;;;5106636;28;20202;-96
2023/08/18 07:30:13;;;;;;;42.13;31.40;;;20.00;99.90;;;;;;5112603;28;20184;-96
2023/08/18 07:32:39;;;;;;;35.13;28.50;;;20.10;99.90;;;;;;5110352;28;20471;-95
2023/08/18 07:35:08;;;;;;;36.77;29.60;;;20.00;99.90;;;;;;5106873;28;20420;-96
2023/08/18 07:37:35;;;;;;;34.50;26.87;;;20.00;99.90;;;;;;5113833;28;20416;-96
2023/08/18 07:40:07;;;;;;;28.60;23.80;;;20.20;99.90;;;;;;5109219;28;20391;-96
2023/08/18 07:42:33;;;;;;;28.73;24.03;;;20.30;99.90;;;;;;5111979;28;20395;-94
2023/08/18 07:44:59;;;;;;;30.40;25.47;;;20.40;99.90;;;;;;5100928;28;20830;-93
2023/08/18 07:47:24;;;;;;;29.63;25.30;;;20.50;99.90;;;;;;5105049;28;20188;-94
2023/08/18 07:49:50;;;;;;;26.20;23.43;;;20.60;99.90;;;;;;5107687;28;20191;-96
2023/08/18 07:52:16;;;;;;;24.83;22.33;;;20.90;99.90;;;;;;5107180;28;20632;-95
2023/08/18 07:54:42;;;;;;;25.07;22.57;;;21.00;99.90;;;;;;5105195;28;20472;-94
2023/08/18 07:57:08;;;;;;;25.37;21.57;;;21.00;99.90;;;;;;5101966;28;20215;-94
2023/08/18 07:59:35;;;;;;;27.43;24.43;;;21.10;99.90;;;;;;5102276;28;20541;-95
2023/08/18 08:04:36;;;;;;;25.83;23.03;;;21.20;99.90;;;;;;5789372;22;20473;-95
2023/08/18 08:07:04;;;;;;;27.00;24.20;;;21.40;99.90;;;;;;5113086;28;20400;-96
2023/08/18 08:09:33;;;;;;;26.17;23.50;;;21.40;99.90;;;;;;5137737;28;20176;-96
2023/08/18 08:12:02;;;;;;;26.57;23.70;;;21.40;99.90;;;;;;5137101;28;20869;-96
2023/08/18 08:14:27;;;;;;;25.93;23.30;;;21.60;99.90;;;;;;5273662;22;20464;-95
2023/08/18 08:16:53;;;;;;;27.70;22.80;;;21.70;99.90;;;;;;5107065;28;20388;-96
2023/08/18 08:19:19;;;;;;;26.67;22.37;;;21.80;99.90;;;;;;5107420;28;20257;-95
2023/08/18 08:21:44;;;;;;;24.43;21.87;;;21.60;99.90;;;;;;5108133;28;20196;-96
2023/08/18 08:24:10;;;;;;;23.37;20.97;;;21.70;99.90;;;;;;5106211;28;20434;-95
2023/08/18 08:26:36;;;;;;;23.83;21.33;;;21.90;99.90;;;;;;5108009;28;20202;-95
2023/08/18 08:29:02;;;;;;;24.87;20.83;;;22.10;99.90;;;;;;5108496;28;20180;-95
2023/08/18 08:31:28;;;;;;;26.67;23.80;;;22.20;99.90;;;;;;5111606;28;20175;-95
2023/08/18 08:33:53;;;;;;;24.43;21.83;;;22.30;99.90;;;;;;5109431;28;20422;-93
2023/08/18 08:36:19;;;;;;;29.30;26.10;;;22.30;99.90;;;;;;5104621;28;20202;-96
2023/08/18 08:38:45;;;;;;;26.13;23.33;;;22.20;99.90;;;;;;5090465;28;20194;-96
2023/08/18 08:41:11;;;;;;;27.50;24.10;;;22.10;99.90;;;;;;5115888;28;20198;-96
2023/08/18 08:43:37;;;;;;;31.60;27.37;;;22.30;99.90;;;;;;5109518;28;20652;-96
2023/08/18 08:46:03;;;;;;;29.27;25.67;;;22.30;99.90;;;;;;5112850;28;20432;-96
2023/08/18 08:48:34;;;;;;;34.03;26.87;;;22.40;99.90;;;;;;5111654;28;20468;-96
2023/08/18 08:51:06;;;;;;;35.70;29.10;;;22.50;99.90;;;;;;5114037;28;20404;-94
2023/08/18 08:53:39;;;;;;;35.37;28.37;;;22.60;99.90;;;;;;5114382;28;20399;-96
2023/08/18 08:56:08;;;;;;;40.40;30.20;;;22.80;99.90;;;;;;5112195;28;20415;-96
2023/08/18 08:58:36;;;;;;;45.13;34.53;;;22.90;99.90;;;;;;5113451;28;20461;-94
2023/08/18 09:01:14;;;;;;;39.17;30.63;;;23.10;99.90;;;;;;5112620;28;20869;-96
2023/08/18 09:03:43;;;;;;;38.57;33.00;;;23.10;99.90;;;;;;5110772;28;20402;-96
2023/08/18 09:06:11;;;;;;;48.27;34.67;;;23.20;99.90;;;;;;5109621;28;20453;-95
2023/08/18 09:08:36;;;;;;;42.43;35.03;;;23.20;99.90;;;;;;5103441;28;20408;-96
2023/08/18 09:11:02;;;;;;;49.30;38.17;;;23.10;99.90;;;;;;5100388;28;20410;-96
2023/08/18 09:13:28;;;;;;;45.37;36.40;;;23.10;99.90;;;;;;5097554;28;20192;-96
2023/08/18 09:15:53;;;;;;;50.73;38.67;;;23.30;99.90;;;;;;5102201;28;20276;-96
2023/08/18 09:18:22;;;;;;;47.13;35.73;;;23.50;99.90;;;;;;5111697;28;20179;-96
2023/08/18 09:20:48;;;;;;;48.70;37.30;;;24.00;99.90;;;;;;5105673;28;20191;-96
2023/08/18 09:23:16;;;;;;;53.63;42.20;;;24.00;99.90;;;;;;5109653;28;20402;-96
2023/08/18 09:25:42;;;;;;;58.40;43.70;;;24.30;99.90;;;;;;5107788;28;20441;-96
2023/08/18 09:28:08;;;;;;;57.67;41.77;;;24.40;99.90;;;;;;5108989;28;20424;-96
2023/08/18 09:30:34;;;;;;;67.80;46.63;;;24.70;99.90;;;;;;5122880;22;20476;-90
2023/08/18 09:33:04;;;;;;;55.73;43.47;;;25.00;99.90;;;;;;5152619;28;20203;-94
2023/08/18 09:35:36;;;;;;;48.83;40.47;;;25.20;99.90;;;;;;5149873;27;20417;-94
2023/08/18 09:38:02;;;;;;;47.57;37.67;;;25.60;99.90;;;;;;5129359;28;20468;-96
2023/08/18 09:40:31;;;;;;;46.60;34.90;;;26.50;99.90;;;;;;5145613;28;20411;-96
2023/08/18 09:42:57;;;;;;;41.50;35.37;;;26.90;99.90;;;;;;5126012;28;20857;-89
2023/08/18 09:45:27;;;;;;;43.97;34.90;;;26.80;99.90;;;;;;5129507;28;20408;-96
2023/08/18 09:47:55;;;;;;;40.50;33.20;;;26.50;99.90;;;;;;5144640;28;20203;-96
2023/08/18 09:50:24;;;;;;;41.90;33.20;;;26.40;99.90;;;;;;5140635;28;20400;-96
2023/08/18 09:52:55;;;;;;;44.50;34.83;;;26.60;99.90;;;;;;5131992;28;20404;-95
2023/08/18 09:55:35;;;;;;;40.00;31.47;;;26.70;99.90;;;;;;5152954;28;20384;-95
2023/08/18 09:58:10;;;;;;;33.90;28.37;;;26.40;99.90;;;;;;5164224;27;20977;-93
2023/08/18 10:00:41;;;;;;;32.30;25.30;;;27.00;99.90;;;;;;5127528;28;20435;-95
2023/08/18 10:03:08;;;;;;;30.70;24.13;;;27.50;99.90;;;;;;5127375;28;20416;-94
2023/08/18 10:05:34;;;;;;;24.43;20.70;;;28.20;99.90;;;;;;5125891;28;20442;-93
2023/08/18 10:08:03;;;;;;;20.77;17.60;;;28.60;99.90;;;;;;5119988;28;20470;-95
2023/08/18 10:10:33;;;;;;;20.67;17.47;;;28.90;99.90;;;;;;5126253;28;20424;-94
2023/08/18 10:12:59;;;;;;;18.33;16.47;;;28.60;99.90;;;;;;5141497;28;20495;-91
2023/08/18 10:15:26;;;;;;;21.23;18.93;;;28.20;99.90;;;;;;5154544;27;20455;-95
2023/08/18 10:17:52;;;;;;;20.33;18.13;;;28.40;99.90;;;;;;5144035;28;20324;-94
2023/08/18 10:20:18;;;;;;;19.50;16.57;;;29.20;99.90;;;;;;5136441;28;20495;-93
2023/08/18 10:22:43;;;;;;;19.50;17.50;;;29.50;99.90;;;;;;5117476;28;20209;-92
2023/08/18 10:25:09;;;;;;;22.67;20.27;;;29.30;99.90;;;;;;5138634;28;20175;-94
2023/08/18 10:27:37;;;;;;;16.87;15.07;;;29.80;99.90;;;;;;5138912;28;20174;-95
2023/08/18 10:30:10;;;;;;;21.40;17.83;;;29.50;99.90;;;;;;5137808;28;20756;-93
2023/08/18 10:32:36;;;;;;;20.57;18.20;;;29.80;99.90;;;;;;5122833;28;20989;-94
2023/08/18 10:35:24;;;;;;;23.30;18.70;;;29.40;99.90;;;;;;5139756;28;20409;-95
2023/08/18 10:37:53;;;;;;;23.80;21.20;;;29.40;99.90;;;;;;5138104;27;20456;-95
2023/08/18 10:40:27;;;;;;;22.60;17.10;;;29.50;99.90;;;;;;5140287;27;20420;-92
2023/08/18 10:42:59;;;;;;;21.03;16.40;;;29.60;99.90;;;;;;5139714;27;20412;-92
2023/08/18 10:45:26;;;;;;;16.93;15.10;;;29.70;99.90;;;;;;5141873;27;20396;-94
2023/08/18 10:47:53;;;;;;;17.10;15.40;;;30.40;99.90;;;;;;5140334;27;20423;-93
2023/08/18 10:50:19;;;;;;;16.57;14.87;;;30.40;99.90;;;;;;5138923;27;20412;-94
2023/08/18 10:52:45;;;;;;;16.53;14.90;;;30.40;99.90;;;;;;5141289;27;20409;-92
2023/08/18 10:55:11;;;;;;;15.20;13.67;;;30.40;99.90;;;;;;5120084;27;20702;-92
2023/08/18 10:57:37;;;;;;;15.50;13.83;;;30.80;99.90;;;;;;5137825;27;20550;-93
2023/08/18 11:00:11;;;;;;;16.63;14.90;;;31.40;99.90;;;;;;5138657;27;20179;-93
2023/08/18 11:02:37;;;;;;;14.50;13.07;;;31.80;99.90;;;;;;5137979;27;20436;-91
2023/08/18 11:05:04;;;;;;;14.90;13.50;;;31.40;99.90;;;;;;5139195;27;20404;-95
2023/08/18 11:07:30;;;;;;;19.00;15.10;;;31.80;99.90;;;;;;5138101;27;20919;-94
2023/08/18 11:09:56;;;;;;;13.13;11.80;;;32.00;99.90;;;;;;5105570;27;20507;-92
2023/08/18 11:12:22;;;;;;;14.63;13.00;;;32.10;99.90;;;;;;5137405;27;20459;-91
2023/08/18 11:14:48;;;;;;;13.43;12.13;;;32.20;99.90;;;;;;5138728;27;20173;-91
2023/08/18 11:17:14;;;;;;;14.83;10.67;;;32.70;99.90;;;;;;5136419;27;20456;-91
2023/08/18 11:19:39;;;;;;;11.27;10.30;;;32.80;99.90;;;;;;5119339;27;20580;-92
2023/08/18 11:22:05;;;;;;;9.90;8.90;;;32.90;99.90;;;;;;5119660;27;20706;-91
2023/08/18 11:24:32;;;;;;;9.57;8.73;;;33.00;99.90;;;;;;5119481;27;20179;-91
2023/08/18 11:26:57;;;;;;;9.63;8.73;;;33.40;99.90;;;;;;5138956;27;20175;-94
2023/08/18 11:29:27;;;;;;;11.27;10.20;;;33.60;99.90;;;;;;5138989;27;20439;-92
2023/08/18 11:31:52;;;;;;;8.90;8.20;;;33.40;99.90;;;;;;5119066;27;20226;-91
2023/08/18 11:34:20;;;;;;;10.20;9.20;;;33.60;99.90;;;;;;5137568;27;20419;-93
2023/08/18 11:36:46;;;;;;;8.70;7.83;;;33.60;99.90;;;;;;5145235;27;20561;-90
2023/08/18 11:39:12;;;;;;;11.90;9.90;;;33.30;99.90;;;;;;5120495;27;20456;-91
2023/08/18 11:41:45;;;;;;;9.87;9.03;;;33.40;99.90;;;;;;5102876;27;20541;-91
2023/08/18 11:44:11;;;;;;;8.90;8.10;;;33.60;99.90;;;;;;5137643;27;20408;-95
2023/08/18 11:46:38;;;;;;;8.30;7.60;;;33.60;99.90;;;;;;5137604;27;20416;-91
2023/08/18 11:49:18;;;;;;;9.67;8.67;;;33.80;99.90;;;;;;5117979;27;20939;-92
2023/08/18 11:52:00;;;;;;;8.20;7.57;;;33.20;99.90;;;;;;5119192;27;20393;-91
2023/08/18 11:54:31;;;;;;;7.50;6.80;;;33.90;99.90;;;;;;5144446;27;20416;-95
2023/08/18 11:56:57;;;;;;;8.27;7.40;;;33.80;99.90;;;;;;5119573;27;20432;-92
2023/08/18 11:59:24;;;;;;;8.10;7.40;;;34.60;99.90;;;;;;5136604;27;20408;-91
2023/08/18 12:01:57;;;;;;;7.87;7.17;;;34.70;99.90;;;;;;5136964;27;20431;-94
2023/08/18 12:04:30;;;;;;;7.63;7.03;;;34.80;99.90;;;;;;5139056;27;20397;-91
2023/08/18 12:06:57;;;;;;;7.63;6.87;;;35.00;99.90;;;;;;5135977;27;20415;-90
2023/08/18 12:09:22;;;;;;;7.47;6.77;;;35.00;99.90;;;;;;5135853;27;20401;-90
2023/08/18 12:11:50;;;;;;;7.40;6.70;;;35.10;99.90;;;;;;5135791;27;20492;-91
2023/08/18 12:14:16;;;;;;;7.43;6.83;;;35.40;99.90;;;;;;5117293;27;20171;-94
2023/08/18 12:16:42;;;;;;;10.20;7.30;;;35.80;99.90;;;;;;5136130;27;20409;-94
2023/08/18 12:19:18;;;;;;;8.47;7.60;;;35.50;99.90;;;;;;5121518;27;20444;-92
2023/08/18 12:21:44;;;;;;;7.53;6.80;;;35.50;99.90;;;;;;5152760;27;20419;-95
2023/08/18 12:24:10;;;;;;;6.90;6.30;;;35.60;99.90;;;;;;5142668;27;20408;-91
2023/08/18 12:26:37;;;;;;;7.27;6.57;;;35.80;99.90;;;;;;5136781;27;20202;-94
2023/08/18 12:29:04;;;;;;;7.63;6.87;;;35.70;99.90;;;;;;5135776;27;20197;-95
2023/08/18 12:31:33;;;;;;;7.53;6.90;;;36.10;99.90;;;;;;5151354;27;20959;-96